sensor_id;sensor_type;location;lat;lon;timestamp;pressure;altitude;pressure_sealevel;temperature;humidity
14293;BME280;62290;59.420;17.842;2022-11-03T00:01:33;100919.84;;;22.02;41.82
14293;BME280;62290;59.420;17.842;2022-11-03T00:04:03;100925.22;;;22.02;42.04
14293;BME280;62290;59.420;17.842;2022-11-03T00:06:32;100920.81;;;22.01;41.97
14293;BME280;62290;59.420;17.842;2022-11-03T00:09:02;100916.19;;;22.03;41.58
14293;BME280;62290;59.420;17.842;2022-11-03T00:11:32;100918.00;;;22.02;41.81
14293;BME280;62290;59.420;17.842;2022-11-03T00:14:01;100918.13;;;22.01;41.45
14293;BME280;62290;59.420;17.842;2022-11-03T00:16:29;100918.97;;;22.01;41.55
14293;BME280;62290;59.420;17.842;2022-11-03T00:18:57;100922.53;;;22.02;41.62
14293;BME280;62290;59.420;17.842;2022-11-03T00:21:25;100913.75;;;22.00;41.27
14293;BME280;62290;59.420;17.842;2022-11-03T00:23:53;100918.13;;;22.01;41.48
14293;BME280;62290;59.420;17.842;2022-11-03T00:26:23;100908.97;;;21.92;41.21
14293;BME280;62290;59.420;17.842;2022-11-03T00:28:53;100924.34;;;22.01;41.18
14293;BME280;62290;59.420;17.842;2022-11-03T00:31:23;100919.22;;;21.98;41.13
14293;BME280;62290;59.420;17.842;2022-11-03T00:33:52;100929.84;;;22.00;40.97
14293;BME280;62290;59.420;17.842;2022-11-03T00:36:22;100926.31;;;21.99;40.96
14293;BME280;62290;59.420;17.842;2022-11-03T00:38:51;100922.75;;;21.99;41.00
14293;BME280;62290;59.420;17.842;2022-11-03T00:41:20;100936.91;;;22.01;40.91
14293;BME280;62290;59.420;17.842;2022-11-03T00:43:49;100937.66;;;22.03;40.94
14293;BME280;62290;59.420;17.842;2022-11-03T00:46:19;100938.50;;;22.03;40.91
14293;BME280;62290;59.420;17.842;2022-11-03T00:48:48;100944.00;;;22.02;40.83
14293;BME280;62290;59.420;17.842;2022-11-03T00:51:17;100934.97;;;22.03;40.80
14293;BME280;62290;59.420;17.842;2022-11-03T00:53:47;100948.28;;;22.04;40.48
14293;BME280;62290;59.420;17.842;2022-11-03T00:56:16;100942.28;;;22.01;40.66
14293;BME280;62290;59.420;17.842;2022-11-03T00:58:45;100946.53;;;22.03;40.45
14293;BME280;62290;59.420;17.842;2022-11-03T01:01:15;100936.91;;;22.01;40.48
14293;BME280;62290;59.420;17.842;2022-11-03T01:03:46;100943.03;;;22.03;40.65
14293;BME280;62290;59.420;17.842;2022-11-03T01:06:30;100950.31;;;22.01;40.47
14293;BME280;62290;59.420;17.842;2022-11-03T01:09:16;100944.34;;;21.97;40.50
14293;BME280;62290;59.420;17.842;2022-11-03T01:11:51;100956.53;;;22.01;40.39
14293;BME280;62290;59.420;17.842;2022-11-03T01:14:20;100948.63;;;22.00;40.44
14293;BME280;62290;59.420;17.842;2022-11-03T01:16:48;100946.78;;;22.00;39.96
14293;BME280;62290;59.420;17.842;2022-11-03T01:19:17;100938.00;;;21.87;39.98
14293;BME280;62290;59.420;17.842;2022-11-03T01:21:45;100957.78;;;21.97;39.91
14293;BME280;62290;59.420;17.842;2022-11-03T01:24:13;100950.81;;;21.95;39.93
14293;BME280;62290;59.420;17.842;2022-11-03T01:26:41;100951.53;;;21.97;39.82
14293;BME280;62290;59.420;17.842;2022-11-03T01:29:09;100956.19;;;21.95;39.73
14293;BME280;62290;59.420;17.842;2022-11-03T01:31:37;100958.09;;;21.93;39.74
14293;BME280;62290;59.420;17.842;2022-11-03T01:34:05;100968.84;;;21.93;39.98
14293;BME280;62290;59.420;17.842;2022-11-03T01:36:34;100965.41;;;21.91;39.77
14293;BME280;62290;59.420;17.842;2022-11-03T01:39:02;100969.19;;;21.88;39.70
14293;BME280;62290;59.420;17.842;2022-11-03T01:41:30;100967.50;;;21.87;39.88
14293;BME280;62290;59.420;17.842;2022-11-03T01:44:32;100967.69;;;21.84;39.59
14293;BME280;62290;59.420;17.842;2022-11-03T01:47:14;100965.25;;;21.81;39.60
14293;BME280;62290;59.420;17.842;2022-11-03T01:49:47;100976.84;;;21.82;39.71
14293;BME280;62290;59.420;17.842;2022-11-03T01:52:21;100978.53;;;21.83;39.31
14293;BME280;62290;59.420;17.842;2022-11-03T01:54:54;100980.47;;;21.81;39.79
14293;BME280;62290;59.420;17.842;2022-11-03T01:57:27;100978.75;;;21.80;39.72
14293;BME280;62290;59.420;17.842;2022-11-03T02:00:00;100984.13;;;21.80;39.40
14293;BME280;62290;59.420;17.842;2022-11-03T02:02:38;100987.78;;;21.79;39.75
14293;BME280;62290;59.420;17.842;2022-11-03T02:05:08;100990.34;;;21.80;39.49
14293;BME280;62290;59.420;17.842;2022-11-03T02:07:42;100990.34;;;21.80;39.77
14293;BME280;62290;59.420;17.842;2022-11-03T02:10:12;100992.44;;;21.77;39.85
14293;BME280;62290;59.420;17.842;2022-11-03T02:12:41;100985.34;;;21.76;39.61
14293;BME280;62290;59.420;17.842;2022-11-03T02:15:11;100990.56;;;21.77;39.49
14293;BME280;62290;59.420;17.842;2022-11-03T02:17:41;100994.25;;;21.76;39.53
14293;BME280;62290;59.420;17.842;2022-11-03T02:20:11;100996.94;;;21.76;39.41
14293;BME280;62290;59.420;17.842;2022-11-03T02:23:16;100998.88;;;21.74;39.46
14293;BME280;62290;59.420;17.842;2022-11-03T02:25:50;100997.28;;;21.72;39.54
14293;BME280;62290;59.420;17.842;2022-11-03T02:28:20;100973.94;;;21.61;39.86
14293;BME280;62290;59.420;17.842;2022-11-03T02:30:56;100966.97;;;21.59;39.70
14293;BME280;62290;59.420;17.842;2022-11-03T02:33:34;100977.97;;;21.67;39.34
14293;BME280;62290;59.420;17.842;2022-11-03T02:36:09;100988.47;;;21.70;39.30
14293;BME280;62290;59.420;17.842;2022-11-03T02:38:44;100986.78;;;21.69;39.64
14293;BME280;62290;59.420;17.842;2022-11-03T02:41:16;100984.19;;;21.67;39.64
14293;BME280;62290;59.420;17.842;2022-11-03T02:43:45;100985.28;;;21.65;39.47
14293;BME280;62290;59.420;17.842;2022-11-03T02:46:15;100990.75;;;21.63;39.14
14293;BME280;62290;59.420;17.842;2022-11-03T02:48:44;100988.19;;;21.62;39.50
14293;BME280;62290;59.420;17.842;2022-11-03T02:51:12;100986.50;;;21.61;39.31
14293;BME280;62290;59.420;17.842;2022-11-03T02:53:44;100993.66;;;21.60;39.40
14293;BME280;62290;59.420;17.842;2022-11-03T02:56:19;100990.13;;;21.60;39.33
14293;BME280;62290;59.420;17.842;2022-11-03T02:58:53;100990.25;;;21.58;39.31
14293;BME280;62290;59.420;17.842;2022-11-03T03:01:27;100997.56;;;21.56;39.30
14293;BME280;62290;59.420;17.842;2022-11-03T03:04:03;101002.94;;;21.56;39.03
14293;BME280;62290;59.420;17.842;2022-11-03T03:06:35;100999.47;;;21.54;39.21
14293;BME280;62290;59.420;17.842;2022-11-03T03:09:09;101011.19;;;21.53;38.86
14293;BME280;62290;59.420;17.842;2022-11-03T03:11:41;101010.34;;;21.52;39.18
14293;BME280;62290;59.420;17.842;2022-11-03T03:14:15;101008.59;;;21.51;39.21
14293;BME280;62290;59.420;17.842;2022-11-03T03:16:49;101006.66;;;21.53;38.99
14293;BME280;62290;59.420;17.842;2022-11-03T03:19:39;101017.38;;;21.53;39.02
14293;BME280;62290;59.420;17.842;2022-11-03T03:22:12;101021.28;;;21.49;39.06
14293;BME280;62290;59.420;17.842;2022-11-03T03:24:48;101027.16;;;21.54;38.99
14293;BME280;62290;59.420;17.842;2022-11-03T03:27:22;101026.44;;;21.52;39.04
14293;BME280;62290;59.420;17.842;2022-11-03T03:29:54;101025.69;;;21.50;39.38
14293;BME280;62290;59.420;17.842;2022-11-03T03:32:25;101021.06;;;21.52;39.19
14293;BME280;62290;59.420;17.842;2022-11-03T03:34:57;101023.84;;;21.51;39.24
14293;BME280;62290;59.420;17.842;2022-11-03T03:37:26;101018.47;;;21.51;39.53
14293;BME280;62290;59.420;17.842;2022-11-03T03:39:58;101020.19;;;21.52;39.27
14293;BME280;62290;59.420;17.842;2022-11-03T03:42:32;101020.31;;;21.50;39.25
14293;BME280;62290;59.420;17.842;2022-11-03T03:45:02;101026.53;;;21.51;39.26
14293;BME280;62290;59.420;17.842;2022-11-03T03:47:32;101011.63;;;21.47;39.71
14293;BME280;62290;59.420;17.842;2022-11-03T03:50:01;101021.16;;;21.51;39.37
14293;BME280;62290;59.420;17.842;2022-11-03T03:52:29;101020.31;;;21.50;39.54
14293;BME280;62290;59.420;17.842;2022-11-03T03:55:00;101025.69;;;21.50;39.43
14293;BME280;62290;59.420;17.842;2022-11-03T03:57:31;101018.72;;;21.48;39.77
14293;BME280;62290;59.420;17.842;2022-11-03T03:59:59;101030.19;;;21.50;39.60
14293;BME280;62290;59.420;17.842;2022-11-03T04:02:37;101032.13;;;21.48;39.44
14293;BME280;62290;59.420;17.842;2022-11-03T04:05:05;101028.59;;;21.47;39.87
14293;BME280;62290;59.420;17.842;2022-11-03T04:07:33;101035.66;;;21.48;39.66
14293;BME280;62290;59.420;17.842;2022-11-03T04:10:14;101034.16;;;21.44;39.72
14293;BME280;62290;59.420;17.842;2022-11-03T04:12:44;101026.25;;;21.43;39.70
14293;BME280;62290;59.420;17.842;2022-11-03T04:15:31;101024.53;;;21.42;39.96
14293;BME280;62290;59.420;17.842;2022-11-03T04:18:17;101031.63;;;21.43;39.82
14293;BME280;62290;59.420;17.842;2022-11-03T04:21:03;101038.91;;;21.41;39.71
14293;BME280;62290;59.420;17.842;2022-11-03T04:23:49;101038.03;;;21.40;40.18
14293;BME280;62290;59.420;17.842;2022-11-03T04:26:18;101049.53;;;21.42;40.01
14293;BME280;62290;59.420;17.842;2022-11-03T04:28:51;101045.84;;;21.43;39.97
14293;BME280;62290;59.420;17.842;2022-11-03T04:31:20;101045.84;;;21.43;39.83
14293;BME280;62290;59.420;17.842;2022-11-03T04:33:48;101040.41;;;21.45;40.17
14293;BME280;62290;59.420;17.842;2022-11-03T04:36:19;101039.41;;;21.46;40.14
14293;BME280;62290;59.420;17.842;2022-11-03T04:38:47;101044.78;;;21.46;39.92
14293;BME280;62290;59.420;17.842;2022-11-03T04:41:17;101046.63;;;21.45;39.81
14293;BME280;62290;59.420;17.842;2022-11-03T04:43:46;101040.28;;;21.46;39.99
14293;BME280;62290;59.420;17.842;2022-11-03T04:46:23;101046.50;;;21.47;39.99
14293;BME280;62290;59.420;17.842;2022-11-03T04:48:52;101046.63;;;21.45;40.05
14293;BME280;62290;59.420;17.842;2022-11-03T04:51:21;101043.81;;;21.47;39.95
14293;BME280;62290;59.420;17.842;2022-11-03T04:53:54;101048.44;;;21.45;40.09
14293;BME280;62290;59.420;17.842;2022-11-03T04:56:23;101047.59;;;21.44;39.89
14293;BME280;62290;59.420;17.842;2022-11-03T04:58:52;101053.81;;;21.45;39.79
14293;BME280;62290;59.420;17.842;2022-11-03T05:01:22;101022.50;;;21.33;39.93
14293;BME280;62290;59.420;17.842;2022-11-03T05:03:52;101050.13;;;21.46;39.67
14293;BME280;62290;59.420;17.842;2022-11-03T05:06:21;101052.94;;;21.44;39.72
14293;BME280;62290;59.420;17.842;2022-11-03T05:08:54;101054.66;;;21.45;39.64
14293;BME280;62290;59.420;17.842;2022-11-03T05:11:28;101052.09;;;21.44;39.60
14293;BME280;62290;59.420;17.842;2022-11-03T05:13:58;101050.38;;;21.43;39.65
14293;BME280;62290;59.420;17.842;2022-11-03T05:16:30;101054.03;;;21.42;39.54
14293;BME280;62290;59.420;17.842;2022-11-03T05:18:58;101054.13;;;21.40;39.60
14293;BME280;62290;59.420;17.842;2022-11-03T05:21:26;101055.09;;;21.39;39.61
14293;BME280;62290;59.420;17.842;2022-11-03T05:23:58;101064.00;;;21.40;39.78
14293;BME280;62290;59.420;17.842;2022-11-03T05:26:30;101066.78;;;21.38;39.39
14293;BME280;62290;59.420;17.842;2022-11-03T05:29:01;101065.19;;;21.36;39.70
14293;BME280;62290;59.420;17.842;2022-11-03T05:31:33;101075.03;;;21.35;39.45
14293;BME280;62290;59.420;17.842;2022-11-03T05:34:20;101076.78;;;21.36;39.52
14293;BME280;62290;59.420;17.842;2022-11-03T05:36:51;101068.09;;;21.33;39.63
14293;BME280;62290;59.420;17.842;2022-11-03T05:39:27;101068.09;;;21.33;39.36
14293;BME280;62290;59.420;17.842;2022-11-03T05:41:56;101076.25;;;21.31;39.14
14293;BME280;62290;59.420;17.842;2022-11-03T05:44:28;101082.56;;;21.30;39.28
14293;BME280;62290;59.420;17.842;2022-11-03T05:46:59;101081.09;;;21.26;39.24
14293;BME280;62290;59.420;17.842;2022-11-03T05:49:33;101086.44;;;21.26;39.30
14293;BME280;62290;59.420;17.842;2022-11-03T05:52:01;101086.22;;;21.29;38.99
14293;BME280;62290;59.420;17.842;2022-11-03T05:54:31;101087.09;;;21.30;39.10
14293;BME280;62290;59.420;17.842;2022-11-03T05:57:00;101095.97;;;21.30;39.19
14293;BME280;62290;59.420;17.842;2022-11-03T05:59:28;101098.66;;;21.30;38.96
14293;BME280;62290;59.420;17.842;2022-11-03T06:01:59;101102.31;;;21.29;38.88
14293;BME280;62290;59.420;17.842;2022-11-03T06:04:30;101102.31;;;21.29;38.70
14293;BME280;62290;59.420;17.842;2022-11-03T06:07:02;101096.94;;;21.29;38.73
14293;BME280;62290;59.420;17.842;2022-11-03T06:09:31;101098.03;;;21.27;39.03
14293;BME280;62290;59.420;17.842;2022-11-03T06:12:01;101100.59;;;21.28;38.59
14293;BME280;62290;59.420;17.842;2022-11-03T06:14:32;101109.63;;;21.27;38.59
14293;BME280;62290;59.420;17.842;2022-11-03T06:17:05;101114.97;;;21.27;38.57
14293;BME280;62290;59.420;17.842;2022-11-03T06:19:36;101109.84;;;21.24;38.48
14293;BME280;62290;59.420;17.842;2022-11-03T06:22:11;101117.22;;;21.21;38.34
14293;BME280;62290;59.420;17.842;2022-11-03T06:24:41;101121.63;;;21.22;38.59
14293;BME280;62290;59.420;17.842;2022-11-03T06:27:12;101121.63;;;21.22;38.46
14293;BME280;62290;59.420;17.842;2022-11-03T06:29:43;101112.81;;;21.20;38.38
14293;BME280;62290;59.420;17.842;2022-11-03T06:32:14;101118.31;;;21.18;38.47
14293;BME280;62290;59.420;17.842;2022-11-03T06:34:45;101122.72;;;21.19;38.09
14293;BME280;62290;59.420;17.842;2022-11-03T06:37:18;101120.13;;;21.18;38.05
14293;BME280;62290;59.420;17.842;2022-11-03T06:39:46;101122.91;;;21.16;38.42
14293;BME280;62290;59.420;17.842;2022-11-03T06:42:16;101122.91;;;21.16;38.17
14293;BME280;62290;59.420;17.842;2022-11-03T06:44:48;101117.03;;;21.11;38.17
14293;BME280;62290;59.420;17.842;2022-11-03T06:47:22;101125.69;;;21.15;38.05
14293;BME280;62290;59.420;17.842;2022-11-03T06:49:52;101135.56;;;21.14;37.99
14293;BME280;62290;59.420;17.842;2022-11-03T06:52:24;101120.78;;;21.09;38.16
14293;BME280;62290;59.420;17.842;2022-11-03T06:54:58;101137.47;;;21.12;38.19
14293;BME280;62290;59.420;17.842;2022-11-03T06:57:29;101112.47;;;20.99;38.17
14293;BME280;62290;59.420;17.842;2022-11-03T07:00:00;101122.47;;;21.10;37.97
14293;BME280;62290;59.420;17.842;2022-11-03T07:03:01;101134.91;;;21.11;37.88
14293;BME280;62290;59.420;17.842;2022-11-03T07:05:33;101123.47;;;21.09;38.12
14293;BME280;62290;59.420;17.842;2022-11-03T07:08:08;101129.66;;;21.09;38.11
14293;BME280;62290;59.420;17.842;2022-11-03T07:10:38;101130.63;;;21.08;37.67
14293;BME280;62290;59.420;17.842;2022-11-03T07:13:12;101124.19;;;20.98;37.81
14293;BME280;62290;59.420;17.842;2022-11-03T07:15:41;101145.97;;;21.06;37.83
14293;BME280;62290;59.420;17.842;2022-11-03T07:18:18;101126.94;;;20.97;37.92
14293;BME280;62290;59.420;17.842;2022-11-03T07:20:49;101150.53;;;21.04;38.04
14293;BME280;62290;59.420;17.842;2022-11-03T07:23:20;101155.72;;;21.07;38.29
14293;BME280;62290;59.420;17.842;2022-11-03T07:25:52;101165.47;;;21.08;38.42
14293;BME280;62290;59.420;17.842;2022-11-03T07:28:22;101172.66;;;21.08;38.38
14293;BME280;62290;59.420;17.842;2022-11-03T07:30:51;101169.09;;;21.07;38.17
14293;BME280;62290;59.420;17.842;2022-11-03T07:33:22;101171.69;;;21.09;38.42
14293;BME280;62290;59.420;17.842;2022-11-03T07:35:52;101169.84;;;21.09;38.39
14293;BME280;62290;59.420;17.842;2022-11-03T07:38:45;101163.66;;;21.09;38.44
14293;BME280;62290;59.420;17.842;2022-11-03T07:41:17;101168.03;;;21.10;38.25
14293;BME280;62290;59.420;17.842;2022-11-03T07:43:52;101163.53;;;21.10;38.41
14293;BME280;62290;59.420;17.842;2022-11-03T07:46:22;101173.41;;;21.10;38.20
14293;BME280;62290;59.420;17.842;2022-11-03T07:48:53;101166.22;;;21.10;38.48
14293;BME280;62290;59.420;17.842;2022-11-03T07:51:24;101164.50;;;21.09;38.18
14293;BME280;62290;59.420;17.842;2022-11-03T07:53:54;101167.16;;;21.09;38.39
14293;BME280;62290;59.420;17.842;2022-11-03T07:56:25;101180.56;;;21.09;38.38
14293;BME280;62290;59.420;17.842;2022-11-03T07:58:57;101182.31;;;21.10;38.41
14293;BME280;62290;59.420;17.842;2022-11-03T08:01:29;101169.66;;;21.12;38.66
14293;BME280;62290;59.420;17.842;2022-11-03T08:04:02;101169.56;;;21.14;38.35
14293;BME280;62290;59.420;17.842;2022-11-03T08:06:31;101169.56;;;21.14;38.62
14293;BME280;62290;59.420;17.842;2022-11-03T08:08:59;101181.88;;;21.16;38.89
14293;BME280;62290;59.420;17.842;2022-11-03T08:11:27;101180.16;;;21.15;39.04
14293;BME280;62290;59.420;17.842;2022-11-03T08:13:55;101187.03;;;21.19;39.52
14293;BME280;62290;59.420;17.842;2022-11-03T08:16:24;101183.38;;;21.20;39.73
14293;BME280;62290;59.420;17.842;2022-11-03T08:18:52;101178.75;;;21.22;39.35
14293;BME280;62290;59.420;17.842;2022-11-03T08:21:21;101182.94;;;21.26;39.64
14293;BME280;62290;59.420;17.842;2022-11-03T08:23:50;101147.38;;;21.12;39.89
14293;BME280;62290;59.420;17.842;2022-11-03T08:26:17;101157.03;;;21.14;39.75
14293;BME280;62290;59.420;17.842;2022-11-03T08:28:46;101175.66;;;21.28;39.82
14293;BME280;62290;59.420;17.842;2022-11-03T08:31:13;101172.97;;;21.28;39.58
14293;BME280;62290;59.420;17.842;2022-11-03T08:33:41;101173.72;;;21.30;39.59
14293;BME280;62290;59.420;17.842;2022-11-03T08:36:10;101174.50;;;21.32;39.66
14293;BME280;62290;59.420;17.842;2022-11-03T08:38:39;101177.06;;;21.34;39.82
14293;BME280;62290;59.420;17.842;2022-11-03T08:41:07;101183.28;;;21.34;40.35
14293;BME280;62290;59.420;17.842;2022-11-03T08:43:35;101184.00;;;21.36;40.08
14293;BME280;62290;59.420;17.842;2022-11-03T08:46:03;101186.50;;;21.39;40.02
14293;BME280;62290;59.420;17.842;2022-11-03T08:48:42;101177.56;;;21.39;40.28
14293;BME280;62290;59.420;17.842;2022-11-03T08:51:10;101187.22;;;21.41;40.06
14293;BME280;62290;59.420;17.842;2022-11-03T08:53:41;101173.28;;;21.36;40.17
14293;BME280;62290;59.420;17.842;2022-11-03T08:56:09;101180.91;;;21.42;40.24
14293;BME280;62290;59.420;17.842;2022-11-03T08:58:42;101180.91;;;21.42;40.25
14293;BME280;62290;59.420;17.842;2022-11-03T09:01:10;101182.59;;;21.43;40.44
14293;BME280;62290;59.420;17.842;2022-11-03T09:03:38;101188.75;;;21.45;39.93
14293;BME280;62290;59.420;17.842;2022-11-03T09:06:07;101187.66;;;21.48;40.00
14293;BME280;62290;59.420;17.842;2022-11-03T09:08:35;101187.53;;;21.49;39.95
14293;BME280;62290;59.420;17.842;2022-11-03T09:11:24;101195.47;;;21.51;40.09
14293;BME280;62290;59.420;17.842;2022-11-03T09:13:52;101205.97;;;21.54;40.25
14293;BME280;62290;59.420;17.842;2022-11-03T09:16:20;101207.72;;;21.55;39.84
14293;BME280;62290;59.420;17.842;2022-11-03T09:18:48;101201.47;;;21.54;40.08
14293;BME280;62290;59.420;17.842;2022-11-03T09:21:16;101202.22;;;21.57;39.73
14293;BME280;62290;59.420;17.842;2022-11-03T09:23:44;101196.97;;;21.55;40.11
14293;BME280;62290;59.420;17.842;2022-11-03T09:26:12;101188.94;;;21.55;39.76
14293;BME280;62290;59.420;17.842;2022-11-03T09:28:41;101194.19;;;21.57;39.96
14293;BME280;62290;59.420;17.842;2022-11-03T09:31:09;101197.72;;;21.57;39.97
14293;BME280;62290;59.420;17.842;2022-11-03T09:33:37;101201.16;;;21.59;39.84
14293;BME280;62290;59.420;17.842;2022-11-03T09:36:05;101193.00;;;21.61;39.85
14293;BME280;62290;59.420;17.842;2022-11-03T09:38:33;101190.94;;;21.64;40.03
14293;BME280;62290;59.420;17.842;2022-11-03T09:41:02;101196.31;;;21.64;39.89
14293;BME280;62290;59.420;17.842;2022-11-03T09:43:52;101194.28;;;21.68;40.08
14293;BME280;62290;59.420;17.842;2022-11-03T09:46:20;101202.19;;;21.69;39.78
14293;BME280;62290;59.420;17.842;2022-11-03T09:48:48;101199.44;;;21.71;39.96
14293;BME280;62290;59.420;17.842;2022-11-03T09:51:18;101203.72;;;21.73;39.66
14293;BME280;62290;59.420;17.842;2022-11-03T09:53:47;101198.47;;;21.72;39.77
14293;BME280;62290;59.420;17.842;2022-11-03T09:56:17;101196.53;;;21.74;39.66
14293;BME280;62290;59.420;17.842;2022-11-03T09:58:46;101201.03;;;21.73;40.00
14293;BME280;62290;59.420;17.842;2022-11-03T10:01:21;101200.91;;;21.75;39.80
14293;BME280;62290;59.420;17.842;2022-11-03T10:03:49;101193.00;;;21.73;39.57
14293;BME280;62290;59.420;17.842;2022-11-03T10:06:17;101201.03;;;21.73;39.63
14293;BME280;62290;59.420;17.842;2022-11-03T10:08:47;101194.72;;;21.74;39.40
14293;BME280;62290;59.420;17.842;2022-11-03T10:11:16;101187.09;;;21.68;39.70
14293;BME280;62290;59.420;17.842;2022-11-03T10:13:45;101180.75;;;21.69;39.85
14293;BME280;62290;59.420;17.842;2022-11-03T10:16:17;101189.09;;;21.77;39.75
14293;BME280;62290;59.420;17.842;2022-11-03T10:18:46;101196.06;;;21.80;39.69
14293;BME280;62290;59.420;17.842;2022-11-03T10:21:16;101198.75;;;21.80;39.23
14293;BME280;62290;59.420;17.842;2022-11-03T10:23:44;101189.97;;;21.78;39.17
14293;BME280;62290;59.420;17.842;2022-11-03T10:26:14;101193.38;;;21.80;38.91
14293;BME280;62290;59.420;17.842;2022-11-03T10:28:58;101192.44;;;21.81;38.87
14293;BME280;62290;59.420;17.842;2022-11-03T10:31:34;101188.03;;;21.80;38.81
14293;BME280;62290;59.420;17.842;2022-11-03T10:34:05;101192.78;;;21.76;39.15
14293;BME280;62290;59.420;17.842;2022-11-03T10:36:33;101189.09;;;21.77;38.83
14293;BME280;62290;59.420;17.842;2022-11-03T10:39:23;101161.34;;;21.66;38.84
14293;BME280;62290;59.420;17.842;2022-11-03T10:41:56;101179.22;;;21.78;38.72
14293;BME280;62290;59.420;17.842;2022-11-03T10:44:25;101168.63;;;21.76;38.63
14293;BME280;62290;59.420;17.842;2022-11-03T10:46:55;101166.81;;;21.77;38.55
14293;BME280;62290;59.420;17.842;2022-11-03T10:49:26;101155.25;;;21.64;38.88
14293;BME280;62290;59.420;17.842;2022-11-03T10:52:00;101178.50;;;21.76;38.70
14293;BME280;62290;59.420;17.842;2022-11-03T10:54:34;101175.16;;;21.72;39.11
14293;BME280;62290;59.420;17.842;2022-11-03T10:57:04;101176.75;;;21.75;39.07
14293;BME280;62290;59.420;17.842;2022-11-03T10:59:35;101181.19;;;21.76;38.95
14293;BME280;62290;59.420;17.842;2022-11-03T11:02:12;101169.72;;;21.74;38.92
14293;BME280;62290;59.420;17.842;2022-11-03T11:04:44;101173.34;;;21.73;38.93
14293;BME280;62290;59.420;17.842;2022-11-03T11:07:19;101175.06;;;21.74;38.74
14293;BME280;62290;59.420;17.842;2022-11-03T11:09:48;101170.00;;;21.69;38.84
14293;BME280;62290;59.420;17.842;2022-11-03T11:12:19;101152.78;;;21.61;38.82
14293;BME280;62290;59.420;17.842;2022-11-03T11:14:53;101168.97;;;21.72;38.79
14293;BME280;62290;59.420;17.842;2022-11-03T11:17:52;101169.91;;;21.71;38.27
14293;BME280;62290;59.420;17.842;2022-11-03T11:20:31;101164.66;;;21.69;38.42
14293;BME280;62290;59.420;17.842;2022-11-03T11:26:31;101157.69;;;21.67;38.27
14293;BME280;62290;59.420;17.842;2022-11-03T11:35:19;101132.72;;;21.53;38.69
14293;BME280;62290;59.420;17.842;2022-11-03T11:41:10;101141.72;;;21.65;38.46
14293;BME280;62290;59.420;17.842;2022-11-03T11:43:38;101137.22;;;21.66;38.51
14293;BME280;62290;59.420;17.842;2022-11-03T11:46:33;101133.53;;;21.67;37.99
14293;BME280;62290;59.420;17.842;2022-11-03T11:49:17;101131.84;;;21.66;37.97
14293;BME280;62290;59.420;17.842;2022-11-03T11:51:46;101128.41;;;21.64;38.01
14293;BME280;62290;59.420;17.842;2022-11-03T11:54:16;101123.81;;;21.66;38.29
14293;BME280;62290;59.420;17.842;2022-11-03T11:56:48;101125.63;;;21.65;38.17
14293;BME280;62290;59.420;17.842;2022-11-03T11:59:19;101110.38;;;21.66;38.16
14293;BME280;62290;59.420;17.842;2022-11-03T12:01:53;101107.69;;;21.66;37.88
14293;BME280;62290;59.420;17.842;2022-11-03T12:04:24;101114.03;;;21.65;37.87
14293;BME280;62290;59.420;17.842;2022-11-03T12:06:53;101114.03;;;21.65;38.20
14293;BME280;62290;59.420;17.842;2022-11-03T12:09:24;101095.28;;;21.52;38.14
14293;BME280;62290;59.420;17.842;2022-11-03T12:11:56;101119.28;;;21.66;38.08
14293;BME280;62290;59.420;17.842;2022-11-03T12:14:32;101112.09;;;21.67;37.91
14293;BME280;62290;59.420;17.842;2022-11-03T12:17:31;101108.56;;;21.66;37.69
14293;BME280;62290;59.420;17.842;2022-11-03T12:19:59;101082.22;;;21.47;37.82
14293;BME280;62290;59.420;17.842;2022-11-03T12:22:40;101108.66;;;21.65;37.90
14293;BME280;62290;59.420;17.842;2022-11-03T12:25:35;101105.03;;;21.66;38.14
14293;BME280;62290;59.420;17.842;2022-11-03T12:28:07;101111.34;;;21.65;37.93
14293;BME280;62290;59.420;17.842;2022-11-03T12:30:35;101110.47;;;21.64;38.10
14293;BME280;62290;59.420;17.842;2022-11-03T12:33:12;101114.03;;;21.65;38.15
14293;BME280;62290;59.420;17.842;2022-11-03T12:35:40;101113.94;;;21.66;38.15
14293;BME280;62290;59.420;17.842;2022-11-03T12:38:09;101114.75;;;21.67;37.79
14293;BME280;62290;59.420;17.842;2022-11-03T12:40:36;101111.13;;;21.68;37.92
14293;BME280;62290;59.420;17.842;2022-11-03T12:43:04;101101.25;;;21.68;37.85
14293;BME280;62290;59.420;17.842;2022-11-03T12:45:34;101107.47;;;21.69;37.95
14293;BME280;62290;59.420;17.842;2022-11-03T12:48:02;101090.09;;;21.62;37.94
14293;BME280;62290;59.420;17.842;2022-11-03T12:50:31;101096.00;;;21.67;37.92
14293;BME280;62290;59.420;17.842;2022-11-03T12:52:59;101095.03;;;21.68;37.91
14293;BME280;62290;59.420;17.842;2022-11-03T12:55:27;101102.94;;;21.69;37.75
14293;BME280;62290;59.420;17.842;2022-11-03T12:57:55;101102.13;;;21.69;38.12
14293;BME280;62290;59.420;17.842;2022-11-03T13:00:23;101095.66;;;21.71;38.95
14293;BME280;62290;59.420;17.842;2022-11-03T13:02:52;101101.66;;;21.75;39.72
14293;BME280;62290;59.420;17.842;2022-11-03T13:05:20;101067.91;;;21.60;40.92
14293;BME280;62290;59.420;17.842;2022-11-03T13:07:48;101100.69;;;21.76;41.96
14293;BME280;62290;59.420;17.842;2022-11-03T13:10:16;101093.38;;;21.78;43.10
14293;BME280;62290;59.420;17.842;2022-11-03T13:12:44;101095.84;;;21.81;43.50
14293;BME280;62290;59.420;17.842;2022-11-03T13:15:12;101095.63;;;21.84;43.36
14293;BME280;62290;59.420;17.842;2022-11-03T13:17:41;101093.63;;;21.87;43.44